Time;durP1;ratioP1;P1;durP2;ratioP2;P2;SDS_P1;SDS_P2;PMS_P1;PMS_P2;Temp;Humidity;BMP_temperature;BMP_pressure;BME280_temperature;BME280_humidity;BME280_pressure;Samples;Min_cycle;Max_cycle;Signal;HPM_P1;HPM_P2
2021/11/02 00:00:48;;;;;;;0.63;0.52;;;;;;;;;;4914526;29;20047;-37
2021/11/02 00:03:13;;;;;;;0.45;0.43;;;;;;;;;;4914357;29;20024;-37
2021/11/02 00:05:39;;;;;;;0.90;0.65;;;;;;;;;;4913326;29;20138;-37
2021/11/02 00:08:05;;;;;;;0.70;0.70;;;;;;;;;;4914398;29;20055;-37
2021/11/02 00:10:31;;;;;;;0.80;0.60;;;;;;;;;;4914567;29;20051;-37
2021/11/02 00:12:57;;;;;;;1.02;0.50;;;;;;;;;;4914492;29;20464;-37
2021/11/02 00:15:26;;;;;;;0.70;0.50;;;;;;;;;;4914453;29;20035;-38
2021/11/02 00:17:56;;;;;;;1.50;0.88;;;;;;;;;;4913491;29;20024;-36
2021/11/02 00:20:21;;;;;;;2.50;0.60;;;;;;;;;;4917988;29;20054;-37
2021/11/02 00:22:58;;;;;;;0.57;0.57;;;;;;;;;;4917845;29;20444;-36
2021/11/02 00:25:25;;;;;;;0.65;0.40;;;;;;;;;;4917793;29;20048;-37
2021/11/02 00:27:51;;;;;;;4.60;0.60;;;;;;;;;;4917861;29;20364;-37
2021/11/02 00:30:18;;;;;;;0.45;0.45;;;;;;;;;;4917769;29;20035;-37
2021/11/02 00:32:44;;;;;;;0.50;0.50;;;;;;;;;;4917878;29;20387;-36
2021/11/02 00:35:11;;;;;;;1.80;0.60;;;;;;;;;;4916282;29;20453;-37
2021/11/02 00:37:37;;;;;;;1.10;0.70;;;;;;;;;;4917750;29;20028;-37
2021/11/02 00:40:06;;;;;;;3.03;0.68;;;;;;;;;;4917649;29;20440;-37
2021/11/02 00:42:37;;;;;;;1.27;0.65;;;;;;;;;;4917399;29;20099;-37
2021/11/02 00:45:05;;;;;;;0.63;0.63;;;;;;;;;;4917314;29;20040;-37
2021/11/02 00:47:32;;;;;;;0.55;0.50;;;;;;;;;;4931938;29;20032;-37
2021/11/02 00:49:58;;;;;;;0.52;0.52;;;;;;;;;;4915867;29;20043;-37
2021/11/02 00:52:24;;;;;;;0.40;0.40;;;;;;;;;;4917291;29;20023;-37
2021/11/02 00:54:51;;;;;;;1.38;0.90;;;;;;;;;;4917115;29;20036;-37
2021/11/02 00:57:16;;;;;;;0.95;0.52;;;;;;;;;;4917074;29;20028;-37
2021/11/02 00:59:43;;;;;;;1.33;0.57;;;;;;;;;;4917443;29;20123;-37
2021/11/02 01:02:10;;;;;;;1.00;0.50;;;;;;;;;;4917191;29;20039;-37
2021/11/02 01:04:36;;;;;;;0.57;0.40;;;;;;;;;;4917378;29;20550;-36
2021/11/02 01:07:02;;;;;;;1.05;0.73;;;;;;;;;;4916733;29;20511;-41
2021/11/02 01:09:28;;;;;;;0.30;0.30;;;;;;;;;;4916907;29;20051;-37
2021/11/02 01:11:54;;;;;;;0.63;0.50;;;;;;;;;;4917181;29;20111;-37
2021/11/02 01:14:20;;;;;;;0.77;0.70;;;;;;;;;;4915983;29;20054;-37
2021/11/02 01:16:45;;;;;;;0.82;0.50;;;;;;;;;;4917162;29;20041;-37
2021/11/02 01:19:11;;;;;;;0.50;0.50;;;;;;;;;;4915322;29;20498;-37
2021/11/02 01:21:37;;;;;;;0.22;0.22;;;;;;;;;;4916744;29;20059;-37
2021/11/02 01:24:02;;;;;;;0.85;0.45;;;;;;;;;;4915477;29;20036;-37
2021/11/02 01:26:28;;;;;;;0.20;0.20;;;;;;;;;;4915361;29;20032;-37
2021/11/02 01:28:54;;;;;;;1.20;0.47;;;;;;;;;;4931136;29;20046;-37
2021/11/02 01:31:20;;;;;;;0.55;0.50;;;;;;;;;;4930363;29;20024;-37
2021/11/02 01:33:46;;;;;;;0.65;0.50;;;;;;;;;;4915243;29;20039;-37
2021/11/02 01:36:11;;;;;;;0.68;0.50;;;;;;;;;;4930972;29;20024;-37
2021/11/02 01:38:37;;;;;;;1.17;0.50;;;;;;;;;;4916626;29;20399;-37
2021/11/02 01:41:08;;;;;;;0.30;0.30;;;;;;;;;;4915032;29;20016;-38
2021/11/02 01:43:34;;;;;;;2.15;0.50;;;;;;;;;;4915082;29;20039;-37
2021/11/02 01:46:01;;;;;;;0.63;0.43;;;;;;;;;;4914923;29;20020;-37
2021/11/02 01:48:31;;;;;;;1.00;0.40;;;;;;;;;;4916332;29;20392;-37
2021/11/02 01:50:57;;;;;;;0.73;0.30;;;;;;;;;;4914856;29;20066;-37
2021/11/02 01:53:23;;;;;;;0.85;0.73;;;;;;;;;;4914935;29;20028;-37
2021/11/02 01:55:54;;;;;;;0.47;0.32;;;;;;;;;;4914948;29;20432;-37
2021/11/02 01:58:21;;;;;;;0.60;0.60;;;;;;;;;;4914905;29;20753;-36
2021/11/02 02:00:50;;;;;;;0.65;0.43;;;;;;;;;;4914748;29;20056;-37
2021/11/02 02:03:31;;;;;;;0.70;0.32;;;;;;;;;;4914299;29;20032;-38
2021/11/02 02:06:05;;;;;;;0.50;0.30;;;;;;;;;;4914508;29;20044;-37
2021/11/02 02:08:40;;;;;;;0.50;0.40;;;;;;;;;;4914618;29;20104;-38
2021/11/02 02:11:12;;;;;;;0.95;0.47;;;;;;;;;;4914464;29;20024;-37
2021/11/02 02:14:07;;;;;;;0.68;0.63;;;;;;;;;;4914697;29;20400;-37
2021/11/02 02:16:38;;;;;;;1.33;0.47;;;;;;;;;;4914448;29;20067;-37
2021/11/02 02:19:24;;;;;;;0.30;0.30;;;;;;;;;;4914397;29;20123;-37
2021/11/02 02:21:50;;;;;;;0.40;0.40;;;;;;;;;;4914398;29;20032;-37
2021/11/02 02:24:21;;;;;;;1.85;0.63;;;;;;;;;;4930124;29;20535;-37
2021/11/02 02:26:54;;;;;;;0.20;0.20;;;;;;;;;;4915730;29;20388;-37
2021/11/02 02:29:21;;;;;;;0.65;0.52;;;;;;;;;;4914114;29;20119;-37
2021/11/02 02:31:48;;;;;;;0.50;0.50;;;;;;;;;;4914188;29;20020;-37
2021/11/02 02:34:15;;;;;;;0.90;0.60;;;;;;;;;;4914206;29;20634;-37
2021/11/02 02:36:46;;;;;;;0.40;0.40;;;;;;;;;;4914178;29;20020;-37
2021/11/02 02:39:13;;;;;;;1.13;0.30;;;;;;;;;;4915501;29;20040;-36
2021/11/02 02:41:44;;;;;;;2.00;0.73;;;;;;;;;;4914215;29;20042;-37
2021/11/02 02:44:14;;;;;;;0.68;0.52;;;;;;;;;;4929814;29;20123;-37
2021/11/02 02:46:40;;;;;;;2.63;0.52;;;;;;;;;;4914059;29;20187;-37
2021/11/02 02:49:08;;;;;;;0.70;0.63;;;;;;;;;;4913859;29;20043;-37
2021/11/02 02:51:36;;;;;;;0.55;0.30;;;;;;;;;;4914031;29;20024;-38
2021/11/02 02:54:02;;;;;;;0.70;0.30;;;;;;;;;;4929773;29;20534;-37
2021/11/02 02:56:29;;;;;;;0.68;0.43;;;;;;;;;;4915306;29;20020;-37
2021/11/02 02:59:00;;;;;;;0.45;0.45;;;;;;;;;;4913709;29;20028;-38
2021/11/02 03:01:28;;;;;;;0.73;0.47;;;;;;;;;;4915198;29;20135;-37
2021/11/02 03:03:56;;;;;;;0.75;0.47;;;;;;;;;;4929688;29;20024;-37
2021/11/02 03:06:25;;;;;;;0.45;0.43;;;;;;;;;;4914982;29;20048;-37
2021/11/02 03:08:53;;;;;;;0.50;0.30;;;;;;;;;;4913804;29;20047;-37
2021/11/02 03:11:20;;;;;;;0.22;0.22;;;;;;;;;;4914857;29;20472;-37
2021/11/02 03:13:48;;;;;;;0.40;0.22;;;;;;;;;;4913741;29;20020;-37
2021/11/02 03:16:15;;;;;;;0.38;0.38;;;;;;;;;;4914811;29;20035;-37
2021/11/02 03:43:44;;;;;;;0.77;0.32;;;;;;;;;;4914780;29;20032;-37
2021/11/02 03:59:57;;;;;;;0.47;0.30;;;;;;;;;;4916921;29;20028;-37
2021/11/02 04:28:03;;;;;;;0.10;0.10;;;;;;;;;;4918095;29;20071;-37
2021/11/02 05:57:53;;;;;;;0.45;0.30;;;;;;;;;;4914885;29;20024;-37
2021/11/02 06:00:27;;;;;;;0.52;0.38;;;;;;;;;;4930633;29;20028;-37
2021/11/02 06:08:57;;;;;;;0.30;0.30;;;;;;;;;;4916375;29;20043;-37
2021/11/02 06:30:18;;;;;;;1.20;0.20;;;;;;;;;;4915524;29;20040;-36
2021/11/02 06:32:49;;;;;;;0.35;0.20;;;;;;;;;;4915754;29;20056;-37
2021/11/02 06:35:24;;;;;;;0.47;0.40;;;;;;;;;;4915454;29;20646;-37
2021/11/02 06:43:50;;;;;;;0.20;0.20;;;;;;;;;;4915415;29;20047;-37
2021/11/02 07:18:36;;;;;;;0.10;0.10;;;;;;;;;;4915004;29;20016;-37
2021/11/02 08:47:30;;;;;;;0.20;0.20;;;;;;;;;;4917492;29;20560;-37
2021/11/02 08:49:57;;;;;;;0.20;0.20;;;;;;;;;;4917243;29;20723;-37
2021/11/02 08:52:23;;;;;;;0.77;0.30;;;;;;;;;;4916146;29;20082;-38
2021/11/02 08:54:51;;;;;;;0.20;0.20;;;;;;;;;;4917201;29;20429;-36
2021/11/02 08:57:18;;;;;;;1.67;0.20;;;;;;;;;;4917287;29;20028;-37
2021/11/02 08:59:44;;;;;;;1.48;0.43;;;;;;;;;;4917127;29;20032;-36
2021/11/02 09:02:11;;;;;;;0.38;0.28;;;;;;;;;;4917357;29;20412;-37
2021/11/02 09:04:40;;;;;;;0.20;0.20;;;;;;;;;;4917565;29;20247;-37
2021/11/02 09:07:07;;;;;;;1.38;0.22;;;;;;;;;;4916898;29;20504;-37
2021/11/02 09:09:34;;;;;;;0.50;0.28;;;;;;;;;;4916807;29;20040;-37
2021/11/02 09:12:02;;;;;;;0.43;0.20;;;;;;;;;;4917309;29;20376;-38
2021/11/02 09:14:30;;;;;;;0.40;0.10;;;;;;;;;;4917252;29;20037;-37
2021/11/02 09:16:56;;;;;;;0.10;0.10;;;;;;;;;;4916835;29;20024;-37
2021/11/02 09:19:22;;;;;;;0.50;0.10;;;;;;;;;;4917072;29;20051;-37
2021/11/02 09:21:47;;;;;;;0.22;0.22;;;;;;;;;;4915598;29;20027;-37
2021/11/02 09:24:15;;;;;;;0.20;0.20;;;;;;;;;;4916817;29;20107;-37
2021/11/02 09:26:41;;;;;;;0.22;0.20;;;;;;;;;;4916656;29;20032;-37
2021/11/02 09:29:09;;;;;;;1.42;0.43;;;;;;;;;;4916782;29;20044;-37
2021/11/02 09:31:36;;;;;;;0.28;0.20;;;;;;;;;;4916754;29;20030;-37
2021/11/02 09:34:02;;;;;;;0.20;0.20;;;;;;;;;;4916936;29;20075;-37
2021/11/02 09:36:37;;;;;;;0.45;0.32;;;;;;;;;;4916506;29;20498;-37
2021/11/02 09:39:06;;;;;;;0.10;0.10;;;;;;;;;;4916541;29;20103;-37
2021/11/02 09:41:46;;;;;;;0.20;0.20;;;;;;;;;;4916433;29;20032;-37
2021/11/02 09:44:15;;;;;;;1.42;0.30;;;;;;;;;;4916457;29;20094;-36
2021/11/02 09:46:42;;;;;;;0.38;0.30;;;;;;;;;;4916202;29;20037;-37
2021/11/02 09:49:08;;;;;;;0.43;0.20;;;;;;;;;;4916214;29;20436;-37
2021/11/02 09:51:42;;;;;;;0.85;0.38;;;;;;;;;;4915600;29;20055;-37
2021/11/02 09:54:25;;;;;;;0.22;0.17;;;;;;;;;;4916243;29;20079;-36
2021/11/02 09:57:04;;;;;;;0.30;0.30;;;;;;;;;;4916076;29;20507;-37
2021/11/02 09:59:53;;;;;;;0.17;0.17;;;;;;;;;;4915939;29;20107;-37
2021/11/02 10:02:31;;;;;;;0.30;0.30;;;;;;;;;;4916355;29;20088;-38
2021/11/02 10:05:17;;;;;;;2.10;0.43;;;;;;;;;;4915923;29;20028;-37
2021/11/02 10:08:00;;;;;;;0.20;0.20;;;;;;;;;;4915723;29;20048;-37
2021/11/02 10:10:27;;;;;;;;;;;;;;;;;;4916309;29;20191;-38
2021/11/02 10:13:08;;;;;;;0.20;0.20;;;;;;;;;;4915805;29;20429;-37
2021/11/02 10:15:43;;;;;;;0.47;0.22;;;;;;;;;;4915264;29;20048;-37
2021/11/02 10:18:17;;;;;;;3.80;0.65;;;;;;;;;;4915768;29;20059;-37
2021/11/02 10:20:42;;;;;;;1.77;0.65;;;;;;;;;;4915653;29;20024;-37
2021/11/02 10:23:08;;;;;;;0.93;0.50;;;;;;;;;;4915788;29;20024;-37
2021/11/02 10:25:42;;;;;;;1.77;0.55;;;;;;;;;;4915897;29;20391;-38
2021/11/02 10:28:20;;;;;;;1.67;0.50;;;;;;;;;;4915504;29;20048;-37
2021/11/02 10:31:04;;;;;;;0.80;0.43;;;;;;;;;;4915575;29;20063;-37
2021/11/02 10:33:31;;;;;;;1.55;0.98;;;;;;;;;;4915745;29;20384;-36
2021/11/02 10:36:01;;;;;;;3.13;1.20;;;;;;;;;;4915478;29;20080;-37
2021/11/02 10:38:28;;;;;;;3.22;1.27;;;;;;;;;;4915496;29;20771;-37
2021/11/02 10:40:57;;;;;;;10.10;1.88;;;;;;;;;;4898306;29;20032;-37
2021/11/02 10:43:35;;;;;;;4.97;1.05;;;;;;;;;;4915512;29;20037;-37
2021/11/02 10:46:06;;;;;;;3.80;1.02;;;;;;;;;;4914167;29;20509;-38
2021/11/02 10:48:42;;;;;;;2.15;0.57;;;;;;;;;;4909541;29;20044;-37
2021/11/02 10:51:09;;;;;;;2.42;0.57;;;;;;;;;;4915251;29;20035;-37
2021/11/02 10:53:41;;;;;;;3.25;1.20;;;;;;;;;;4911255;29;20072;-36
2021/11/02 10:56:23;;;;;;;1.85;0.43;;;;;;;;;;4915448;29;20055;-37
2021/11/02 10:58:49;;;;;;;1.10;0.70;;;;;;;;;;4908732;29;20032;-37
2021/11/02 11:01:16;;;;;;;0.80;0.35;;;;;;;;;;4915179;29;20120;-37
2021/11/02 11:03:42;;;;;;;1.58;0.50;;;;;;;;;;4915121;29;20115;-37
2021/11/02 11:06:12;;;;;;;0.50;0.30;;;;;;;;;;4913735;29;20139;-37
2021/11/02 11:08:38;;;;;;;0.65;0.20;;;;;;;;;;4914947;29;20048;-37
2021/11/02 11:11:17;;;;;;;0.95;0.45;;;;;;;;;;4915083;29;20411;-37
2021/11/02 11:13:44;;;;;;;0.68;0.40;;;;;;;;;;4915284;29;20036;-37
2021/11/02 11:16:11;;;;;;;1.23;0.57;;;;;;;;;;4914123;29;20036;-37
2021/11/02 11:19:02;;;;;;;0.57;0.40;;;;;;;;;;4913735;29;20123;-37
2021/11/02 11:21:28;;;;;;;0.50;0.30;;;;;;;;;;4908034;29;20036;-37
2021/11/02 11:23:55;;;;;;;0.85;0.50;;;;;;;;;;4915109;29;20031;-37
2021/11/02 11:26:23;;;;;;;0.52;0.35;;;;;;;;;;4915001;29;20036;-37
2021/11/02 11:28:50;;;;;;;0.57;0.50;;;;;;;;;;4914991;29;20435;-37
2021/11/02 11:31:16;;;;;;;7.80;0.45;;;;;;;;;;4915161;29;20107;-37
2021/11/02 11:33:44;;;;;;;0.55;0.30;;;;;;;;;;4914774;29;20032;-37
2021/11/02 11:36:12;;;;;;;0.22;0.22;;;;;;;;;;4914956;29;20148;-37
2021/11/02 11:38:39;;;;;;;1.45;0.30;;;;;;;;;;4914860;29;20376;-37
2021/11/02 11:41:08;;;;;;;1.95;0.30;;;;;;;;;;4914855;29;20043;-37
2021/11/02 11:43:33;;;;;;;0.65;0.52;;;;;;;;;;4915084;29;20371;-37
2021/11/02 11:46:00;;;;;;;0.10;0.10;;;;;;;;;;4914885;29;20028;-37
2021/11/02 11:48:26;;;;;;;0.20;0.20;;;;;;;;;;4914709;29;20055;-37
2021/11/02 11:50:53;;;;;;;0.10;0.10;;;;;;;;;;4913464;29;20036;-37
2021/11/02 11:53:20;;;;;;;0.47;0.25;;;;;;;;;;4914947;29;20162;-37
2021/11/02 11:55:50;;;;;;;3.58;0.30;;;;;;;;;;4914599;29;20040;-37
2021/11/02 11:58:15;;;;;;;0.13;0.10;;;;;;;;;;4914891;29;20116;-37
2021/11/02 12:00:43;;;;;;;0.43;0.25;;;;;;;;;;4914564;29;20458;-37
2021/11/02 12:03:15;;;;;;;0.40;0.30;;;;;;;;;;4913535;29;20043;-37
2021/11/02 12:05:43;;;;;;;0.43;0.30;;;;;;;;;;4917537;29;20055;-37
2021/11/02 12:08:08;;;;;;;0.65;0.32;;;;;;;;;;4933472;29;20130;-37
2021/11/02 12:10:37;;;;;;;0.25;0.20;;;;;;;;;;4933733;29;20440;-37
2021/11/02 12:13:06;;;;;;;0.20;0.20;;;;;;;;;;4933795;29;20031;-37
2021/11/02 12:16:02;;;;;;;5.20;0.20;;;;;;;;;;4936117;29;20032;-37
2021/11/02 12:18:36;;;;;;;4.25;0.30;;;;;;;;;;4937096;29;20039;-37
2021/11/02 12:21:03;;;;;;;0.17;0.10;;;;;;;;;;4936940;29;20466;-37
2021/11/02 12:23:39;;;;;;;0.20;0.20;;;;;;;;;;4936889;29;20043;-37
2021/11/02 12:26:05;;;;;;;1.40;0.30;;;;;;;;;;4936958;29;20040;-36
2021/11/02 12:28:35;;;;;;;0.77;0.38;;;;;;;;;;4936559;29;20045;-37
2021/11/02 12:31:03;;;;;;;0.63;0.10;;;;;;;;;;4936772;29;20506;-38
2021/11/02 12:33:29;;;;;;;0.17;0.10;;;;;;;;;;4936776;29;20031;-37
2021/11/02 12:35:57;;;;;;;0.95;0.45;;;;;;;;;;4936590;29;20032;-37
2021/11/02 12:38:48;;;;;;;0.10;0.10;;;;;;;;;;4936587;29;20026;-37
2021/11/02 12:41:21;;;;;;;0.28;0.20;;;;;;;;;;4917483;29;20051;-37
2021/11/02 12:44:01;;;;;;;0.40;0.30;;;;;;;;;;4936410;29;20031;-37
2021/11/02 12:46:29;;;;;;;0.10;0.10;;;;;;;;;;4919620;29;20031;-37
2021/11/02 12:48:54;;;;;;;0.10;0.10;;;;;;;;;;4936470;29;20495;-37
2021/11/02 12:51:22;;;;;;;3.22;0.30;;;;;;;;;;4919504;29;20072;-37
2021/11/02 12:53:53;;;;;;;0.20;0.15;;;;;;;;;;4936149;29;20526;-37
2021/11/02 12:56:20;;;;;;;0.50;0.10;;;;;;;;;;4936362;29;20631;-38
2021/11/02 12:58:48;;;;;;;0.20;0.20;;;;;;;;;;4936166;29;20489;-37
2021/11/02 13:01:27;;;;;;;0.20;0.20;;;;;;;;;;4919265;29;20083;-37
2021/11/02 13:03:53;;;;;;;0.43;0.20;;;;;;;;;;4936326;29;20382;-37
2021/11/02 13:06:20;;;;;;;0.10;0.10;;;;;;;;;;4928501;29;20127;-37
2021/11/02 13:08:52;;;;;;;0.55;0.17;;;;;;;;;;4917005;29;20050;-37
2021/11/02 13:11:21;;;;;;;0.25;0.20;;;;;;;;;;4917027;29;20032;-37
2021/11/02 13:14:02;;;;;;;0.38;0.20;;;;;;;;;;4917008;29;20031;-37
2021/11/02 13:16:30;;;;;;;0.32;0.20;;;;;;;;;;4916936;29;20028;-37
2021/11/02 13:18:56;;;;;;;0.45;0.45;;;;;;;;;;4931396;29;20024;-37
2021/11/02 13:21:24;;;;;;;0.10;0.10;;;;;;;;;;4915849;29;20119;-37
2021/11/02 13:23:55;;;;;;;0.20;0.20;;;;;;;;;;4916598;29;20023;-37
2021/11/02 13:26:25;;;;;;;0.15;0.10;;;;;;;;;;4915658;29;20399;-37
2021/11/02 13:28:51;;;;;;;0.30;0.20;;;;;;;;;;4916519;29;20519;-37
2021/11/02 13:31:35;;;;;;;0.20;0.20;;;;;;;;;;4916573;29;20068;-37
2021/11/02 13:34:02;;;;;;;2.05;0.10;;;;;;;;;;4915439;29;20039;-37
2021/11/02 13:36:28;;;;;;;0.47;0.30;;;;;;;;;;4916886;29;20042;-37
2021/11/02 13:39:04;;;;;;;0.20;0.20;;;;;;;;;;4916498;29;20028;-37
2021/11/02 13:41:31;;;;;;;0.10;0.10;;;;;;;;;;4916840;29;20526;-37
2021/11/02 13:44:02;;;;;;;0.35;0.35;;;;;;;;;;4915135;29;20495;-37
2021/11/02 13:46:33;;;;;;;0.20;0.20;;;;;;;;;;4916371;29;20040;-38
2021/11/02 13:48:59;;;;;;;0.52;0.40;;;;;;;;;;4916125;29;20076;-37
2021/11/02 13:51:25;;;;;;;0.10;0.10;;;;;;;;;;4916337;29;20067;-37
2021/11/02 13:53:51;;;;;;;0.10;0.10;;;;;;;;;;4916389;29;20039;-37
2021/11/02 13:56:18;;;;;;;0.10;0.10;;;;;;;;;;4914981;29;20027;-37
2021/11/02 13:58:44;;;;;;;3.50;0.17;;;;;;;;;;4916143;29;20043;-37
2021/11/02 14:01:25;;;;;;;0.32;0.20;;;;;;;;;;4916326;29;20044;-37
2021/11/02 14:03:53;;;;;;;0.10;0.10;;;;;;;;;;4916081;29;20429;-37
2021/11/02 14:06:20;;;;;;;0.10;0.10;;;;;;;;;;4915839;29;20058;-38
2021/11/02 14:08:46;;;;;;;1.02;0.17;;;;;;;;;;4914895;29;20127;-37
2021/11/02 14:11:22;;;;;;;0.20;0.20;;;;;;;;;;4915875;29;20063;-37
2021/11/02 14:13:49;;;;;;;0.20;0.20;;;;;;;;;;4915777;29;20047;-37
2021/11/02 14:16:15;;;;;;;0.80;0.43;;;;;;;;;;4916104;29;20079;-37
2021/11/02 14:18:41;;;;;;;0.55;0.30;;;;;;;;;;4930368;29;20043;-37
2021/11/02 14:21:08;;;;;;;0.45;0.20;;;;;;;;;;4915713;29;20020;-37
2021/11/02 14:23:39;;;;;;;0.50;0.10;;;;;;;;;;4915693;29;20101;-37
2021/11/02 14:26:18;;;;;;;0.10;0.10;;;;;;;;;;4915701;29;20032;-37
2021/11/02 14:28:51;;;;;;;0.70;0.17;;;;;;;;;;4915466;29;20045;-36
2021/11/02 14:31:32;;;;;;;0.57;0.10;;;;;;;;;;4915715;29;20028;-37
2021/11/02 14:33:58;;;;;;;0.10;0.10;;;;;;;;;;4915581;29;20051;-37
2021/11/02 14:36:42;;;;;;;0.20;0.20;;;;;;;;;;4914414;29;20574;-36
2021/11/02 14:39:11;;;;;;;0.10;0.10;;;;;;;;;;4915651;29;20070;-37
2021/11/02 14:41:44;;;;;;;0.20;0.20;;;;;;;;;;4915515;29;20463;-37
2021/11/02 14:44:27;;;;;;;0.52;0.30;;;;;;;;;;4915418;29;20031;-37
2021/11/02 14:46:54;;;;;;;0.17;0.10;;;;;;;;;;4915183;29;20131;-37
2021/11/02 14:49:28;;;;;;;4.88;0.28;;;;;;;;;;4915348;29;20100;-37
2021/11/02 14:51:57;;;;;;;0.63;0.20;;;;;;;;;;4914020;29;20039;-37
2021/11/02 14:54:30;;;;;;;0.25;0.20;;;;;;;;;;4915344;29;20769;-37
2021/11/02 14:57:14;;;;;;;1.08;0.20;;;;;;;;;;4915136;29;20055;-37
2021/11/02 14:59:57;;;;;;;0.17;0.17;;;;;;;;;;4915473;29;20188;-37
2021/11/02 15:02:33;;;;;;;0.13;0.13;;;;;;;;;;4915229;29;20164;-37
2021/11/02 15:05:03;;;;;;;0.15;0.15;;;;;;;;;;4915100;29;20526;-37
2021/11/02 15:07:51;;;;;;;0.20;0.20;;;;;;;;;;4914975;29;20059;-37
2021/11/02 15:10:18;;;;;;;0.10;0.10;;;;;;;;;;4915408;29;20043;-37
2021/11/02 15:12:44;;;;;;;0.25;0.15;;;;;;;;;;4915353;29;20035;-38
2021/11/02 15:15:10;;;;;;;0.20;0.20;;;;;;;;;;4915325;29;20039;-37
2021/11/02 15:17:36;;;;;;;0.22;0.20;;;;;;;;;;4915037;29;20474;-37
2021/11/02 15:20:02;;;;;;;0.50;0.15;;;;;;;;;;4915201;29;20447;-37
2021/11/02 15:22:30;;;;;;;0.77;0.30;;;;;;;;;;4915094;29;20028;-37
2021/11/02 15:24:57;;;;;;;0.35;0.10;;;;;;;;;;4914959;29;20036;-37
2021/11/02 15:27:24;;;;;;;0.10;0.10;;;;;;;;;;4915131;29;20055;-37
2021/11/02 15:29:51;;;;;;;0.10;0.00;;;;;;;;;;4914801;29;20064;-37
2021/11/02 15:32:21;;;;;;;0.20;0.10;;;;;;;;;;4914882;29;20028;-36
2021/11/02 15:34:47;;;;;;;0.10;0.10;;;;;;;;;;4914828;29;20035;-37
2021/11/02 15:37:12;;;;;;;0.43;0.20;;;;;;;;;;4914868;29;20020;-37
2021/11/02 15:39:39;;;;;;;0.38;0.13;;;;;;;;;;4913617;29;20467;-37
2021/11/02 15:42:19;;;;;;;0.30;0.20;;;;;;;;;;4914724;29;20024;-37
2021/11/02 15:44:45;;;;;;;1.08;0.43;;;;;;;;;;4914767;29;20059;-37
2021/11/02 15:47:13;;;;;;;0.30;0.20;;;;;;;;;;4914722;29;20780;-37
2021/11/02 15:49:39;;;;;;;0.10;0.10;;;;;;;;;;4914919;29;20074;-37
2021/11/02 15:52:07;;;;;;;0.30;0.20;;;;;;;;;;4917173;29;20473;-37
2021/11/02 15:54:43;;;;;;;0.10;0.10;;;;;;;;;;4918421;29;20032;-37
2021/11/02 15:57:10;;;;;;;0.88;0.22;;;;;;;;;;4918384;29;20020;-37
2021/11/02 15:59:36;;;;;;;0.25;0.25;;;;;;;;;;4918694;29;20420;-37
2021/11/02 16:02:03;;;;;;;0.17;0.17;;;;;;;;;;4918075;29;20028;-37
2021/11/02 16:04:29;;;;;;;0.30;0.30;;;;;;;;;;4918273;29;20475;-37
2021/11/02 16:06:59;;;;;;;0.50;0.35;;;;;;;;;;4917949;29;20044;-37
2021/11/02 16:09:26;;;;;;;0.88;0.75;;;;;;;;;;4918196;29;20040;-37
2021/11/02 16:11:52;;;;;;;1.75;0.38;;;;;;;;;;4918153;29;20028;-37
2021/11/02 16:14:18;;;;;;;0.85;0.10;;;;;;;;;;4918289;29;20724;-37
2021/11/02 16:16:45;;;;;;;0.50;0.20;;;;;;;;;;4917901;29;20020;-37
2021/11/02 16:19:11;;;;;;;2.28;0.20;;;;;;;;;;4916679;29;20040;-37
2021/11/02 16:21:37;;;;;;;0.55;0.20;;;;;;;;;;4918262;29;20069;-37
2021/11/02 16:24:08;;;;;;;0.20;0.20;;;;;;;;;;4916584;29;20035;-37
2021/11/02 16:26:36;;;;;;;0.20;0.20;;;;;;;;;;4918140;29;20032;-37
2021/11/02 16:29:12;;;;;;;0.25;0.20;;;;;;;;;;4917708;29;20539;-37
2021/11/02 16:31:38;;;;;;;0.30;0.30;;;;;;;;;;4917707;29;20056;-37
2021/11/02 16:34:17;;;;;;;0.60;0.38;;;;;;;;;;4917719;29;20055;-37
2021/11/02 16:36:42;;;;;;;0.35;0.30;;;;;;;;;;4917764;29;20036;-37
2021/11/02 16:39:14;;;;;;;0.82;0.40;;;;;;;;;;4917651;29;20477;-37
2021/11/02 16:41:44;;;;;;;2.50;0.50;;;;;;;;;;4917794;29;20032;-37
2021/11/02 16:44:11;;;;;;;1.48;0.63;;;;;;;;;;4917568;29;20031;-37
2021/11/02 16:46:41;;;;;;;1.83;0.75;;;;;;;;;;4917758;29;20040;-37
2021/11/02 16:49:11;;;;;;;2.28;0.82;;;;;;;;;;4916376;29;20044;-37
2021/11/02 16:51:46;;;;;;;1.15;0.43;;;;;;;;;;4917617;29;20123;-37
2021/11/02 16:54:12;;;;;;;1.63;0.68;;;;;;;;;;4917402;29;20039;-37
2021/11/02 16:56:58;;;;;;;3.42;0.60;;;;;;;;;;4917638;29;20372;-37
2021/11/02 16:59:39;;;;;;;2.58;0.65;;;;;;;;;;4917292;29;20028;-38
2021/11/02 17:02:39;;;;;;;0.55;0.40;;;;;;;;;;4917056;29;20047;-37
2021/11/02 17:05:23;;;;;;;2.97;0.52;;;;;;;;;;4885784;29;20052;-37
2021/11/02 17:07:53;;;;;;;1.58;0.68;;;;;;;;;;4917002;29;20040;-37
2021/11/02 17:10:28;;;;;;;3.67;1.33;;;;;;;;;;4917096;29;20085;-37
2021/11/02 17:13:14;;;;;;;1.67;0.63;;;;;;;;;;4917043;29;20048;-37
2021/11/02 17:16:02;;;;;;;1.05;0.50;;;;;;;;;;4916610;29;20121;-37
2021/11/02 17:18:45;;;;;;;0.38;0.38;;;;;;;;;;4916941;29;20054;-42
2021/11/02 17:21:11;;;;;;;3.22;0.30;;;;;;;;;;4917179;29;20036;-37
2021/11/02 17:23:37;;;;;;;0.60;0.40;;;;;;;;;;4916890;29;20103;-37
2021/11/02 17:26:05;;;;;;;0.57;0.38;;;;;;;;;;4916721;29;20044;-36
2021/11/02 17:28:31;;;;;;;0.45;0.40;;;;;;;;;;4915362;29;20088;-37
2021/11/02 17:31:07;;;;;;;1.40;0.40;;;;;;;;;;4916649;29;20068;-37
2021/11/02 17:33:33;;;;;;;1.58;0.40;;;;;;;;;;4916581;29;20471;-38
2021/11/02 17:35:59;;;;;;;0.57;0.50;;;;;;;;;;4916795;29;20368;-37
2021/11/02 17:38:25;;;;;;;0.47;0.43;;;;;;;;;;4916831;29;20361;-38
2021/11/02 17:40:52;;;;;;;1.02;0.47;;;;;;;;;;4916435;29;20024;-37
2021/11/02 17:43:21;;;;;;;2.67;0.60;;;;;;;;;;4916588;29;20168;-37
2021/11/02 17:45:47;;;;;;;0.88;0.50;;;;;;;;;;4916328;29;20020;-37
2021/11/02 17:48:15;;;;;;;0.32;0.30;;;;;;;;;;4916303;29;20040;-37
2021/11/02 17:50:41;;;;;;;0.73;0.52;;;;;;;;;;4915517;29;20031;-37
2021/11/02 17:53:07;;;;;;;0.22;0.22;;;;;;;;;;4916331;29;20107;-37
2021/11/02 17:55:32;;;;;;;0.70;0.30;;;;;;;;;;4916253;29;20128;-37
2021/11/02 17:57:59;;;;;;;0.30;0.30;;;;;;;;;;4916297;29;20032;-37
2021/11/02 18:00:28;;;;;;;0.20;0.20;;;;;;;;;;4916224;29;20464;-37
2021/11/02 18:02:56;;;;;;;0.82;0.60;;;;;;;;;;4914715;29;20036;-37
2021/11/02 18:05:26;;;;;;;0.57;0.57;;;;;;;;;;4915944;29;20332;-38
2021/11/02 18:07:52;;;;;;;1.90;0.60;;;;;;;;;;4915797;29;20111;-37
2021/11/02 18:10:18;;;;;;;0.20;0.20;;;;;;;;;;4915950;29;20115;-37
2021/11/02 18:12:44;;;;;;;0.45;0.40;;;;;;;;;;4915504;29;20120;-37
2021/11/02 18:15:10;;;;;;;1.92;0.50;;;;;;;;;;4915853;29;20024;-39
2021/11/02 18:17:47;;;;;;;0.30;0.20;;;;;;;;;;4915742;29;20036;-37
2021/11/02 18:20:13;;;;;;;0.38;0.32;;;;;;;;;;4915877;29;20027;-37
2021/11/02 18:22:41;;;;;;;0.95;0.38;;;;;;;;;;4914614;29;20031;-37
2021/11/02 18:25:07;;;;;;;0.45;0.32;;;;;;;;;;4915697;29;20043;-37
2021/11/02 18:27:33;;;;;;;1.85;0.68;;;;;;;;;;4915950;29;20092;-37
2021/11/02 18:29:59;;;;;;;0.50;0.35;;;;;;;;;;4914266;29;20440;-37
2021/11/02 18:32:27;;;;;;;1.42;0.77;;;;;;;;;;4914393;29;20051;-37
2021/11/02 18:34:53;;;;;;;0.65;0.30;;;;;;;;;;4915570;29;20036;-37
2021/11/02 18:37:22;;;;;;;0.50;0.40;;;;;;;;;;4915450;29;20119;-37
2021/11/02 18:39:48;;;;;;;1.85;0.55;;;;;;;;;;4915489;29;20107;-37
2021/11/02 18:42:14;;;;;;;0.38;0.25;;;;;;;;;;4915827;29;20432;-37
2021/11/02 18:44:40;;;;;;;1.13;0.63;;;;;;;;;;4915423;29;20499;-37
2021/11/02 18:47:06;;;;;;;0.60;0.40;;;;;;;;;;4915242;29;20055;-37
2021/11/02 18:49:32;;;;;;;0.35;0.35;;;;;;;;;;4915325;29;20048;-38
2021/11/02 18:52:01;;;;;;;0.65;0.60;;;;;;;;;;4914063;29;20035;-37
2021/11/02 18:54:27;;;;;;;0.52;0.45;;;;;;;;;;4915388;29;20036;-37
2021/11/02 18:56:52;;;;;;;2.65;0.35;;;;;;;;;;4915372;29;20068;-38
2021/11/02 18:59:18;;;;;;;0.88;0.57;;;;;;;;;;4915176;29;20084;-37
2021/11/02 19:01:44;;;;;;;0.60;0.40;;;;;;;;;;4915210;29;20024;-37
2021/11/02 19:04:11;;;;;;;1.20;0.50;;;;;;;;;;4915506;29;20032;-38
2021/11/02 19:06:37;;;;;;;1.52;0.50;;;;;;;;;;4915064;29;20496;-37
2021/11/02 19:09:03;;;;;;;1.38;0.88;;;;;;;;;;4914975;29;20081;-37
2021/11/02 19:11:28;;;;;;;0.57;0.40;;;;;;;;;;4915158;29;20048;-37
2021/11/02 19:13:54;;;;;;;3.83;0.60;;;;;;;;;;4915083;29;20032;-37
2021/11/02 19:16:20;;;;;;;1.45;0.68;;;;;;;;;;4915126;29;20046;-37
2021/11/02 19:18:47;;;;;;;1.73;0.90;;;;;;;;;;4914974;29;20044;-37
2021/11/02 19:21:13;;;;;;;3.00;0.68;;;;;;;;;;4914933;29;20032;-37
2021/11/02 19:23:38;;;;;;;3.65;1.08;;;;;;;;;;4915083;29;20033;-37
2021/11/02 19:26:04;;;;;;;2.50;1.10;;;;;;;;;;4918992;29;20032;-37
2021/11/02 19:28:31;;;;;;;1.20;0.65;;;;;;;;;;4918979;29;20127;-37
2021/11/02 19:30:56;;;;;;;0.93;0.50;;;;;;;;;;4918843;29;20491;-37
2021/11/02 19:33:22;;;;;;;2.08;0.65;;;;;;;;;;4918858;29;20044;-37
2021/11/02 19:35:48;;;;;;;2.88;0.80;;;;;;;;;;4918938;29;20020;-36
2021/11/02 19:38:14;;;;;;;1.08;0.75;;;;;;;;;;4918642;29;20036;-37
2021/11/02 19:40:41;;;;;;;1.58;1.05;;;;;;;;;;4917521;29;20134;-37
2021/11/02 19:43:07;;;;;;;0.55;0.50;;;;;;;;;;4918571;29;20032;-37
2021/11/02 19:45:32;;;;;;;1.25;0.65;;;;;;;;;;4918596;29;20031;-37
2021/11/02 19:47:59;;;;;;;3.30;0.80;;;;;;;;;;4918562;29;20092;-37
2021/11/02 19:50:25;;;;;;;1.02;0.63;;;;;;;;;;4918533;29;20036;-37
2021/11/02 19:52:54;;;;;;;0.68;0.50;;;;;;;;;;4918670;29;20024;-37
2021/11/02 19:55:21;;;;;;;2.45;1.27;;;;;;;;;;4918413;29;20024;-37
2021/11/02 19:57:47;;;;;;;1.08;0.98;;;;;;;;;;4918311;29;20500;-37